sensor_id;sensor_type;location;lat;lon;timestamp;pressure;altitude;pressure_sealevel;temperature;humidity
5298;BME280;14738;42.668;23.250;2023-08-21T00:02:01;48376.41;;;-141.90;47.91
5298;BME280;14738;42.668;23.250;2023-08-21T00:04:27;48350.59;;;-141.90;47.95
5298;BME280;14738;42.668;23.250;2023-08-21T00:06:53;48406.19;;;-141.90;48.20
5298;BME280;14738;42.668;23.250;2023-08-21T00:09:18;48402.22;;;-141.90;48.68
5298;BME280;14738;42.668;23.250;2023-08-21T00:11:43;48382.34;;;-141.90;48.61
5298;BME280;14738;42.668;23.250;2023-08-21T00:14:09;48412.13;;;-141.90;48.47
5298;BME280;14738;42.668;23.250;2023-08-21T00:16:34;48410.16;;;-141.90;48.57
5298;BME280;14738;42.668;23.250;2023-08-21T00:19:00;48380.38;;;-141.90;48.69
5298;BME280;14738;42.668;23.250;2023-08-21T00:21:25;48430.00;;;-141.90;49.09
5298;BME280;14738;42.668;23.250;2023-08-21T00:23:50;48378.38;;;-141.90;49.32
5298;BME280;14738;42.668;23.250;2023-08-21T00:26:16;48368.47;;;-141.90;49.82
5298;BME280;14738;42.668;23.250;2023-08-21T00:28:41;48386.34;;;-141.90;49.58
5298;BME280;14738;42.668;23.250;2023-08-21T00:31:06;48338.69;;;-141.90;49.74
5298;BME280;14738;42.668;23.250;2023-08-21T00:33:32;48390.31;;;-141.90;49.61
5298;BME280;14738;42.668;23.250;2023-08-21T00:35:58;48404.19;;;-141.90;49.79
5298;BME280;14738;42.668;23.250;2023-08-21T00:38:24;48370.44;;;-141.90;49.53
5298;BME280;14738;42.668;23.250;2023-08-21T00:40:50;48382.34;;;-141.90;49.19
5298;BME280;14738;42.668;23.250;2023-08-21T00:43:15;48370.44;;;-141.90;49.36
5298;BME280;14738;42.668;23.250;2023-08-21T00:45:43;48378.38;;;-141.90;49.66
5298;BME280;14738;42.668;23.250;2023-08-21T00:48:09;48408.16;;;-141.90;49.66
5298;BME280;14738;42.668;23.250;2023-08-21T00:50:35;48390.31;;;-141.90;50.05
5298;BME280;14738;42.668;23.250;2023-08-21T00:53:01;48382.34;;;-141.90;49.82
5298;BME280;14738;42.668;23.250;2023-08-21T00:55:29;48386.34;;;-141.90;49.75
5298;BME280;14738;42.668;23.250;2023-08-21T00:57:54;48410.16;;;-141.90;49.51
5298;BME280;14738;42.668;23.250;2023-08-21T01:00:20;48356.56;;;-141.90;49.46
5298;BME280;14738;42.668;23.250;2023-08-21T01:02:47;48386.34;;;-141.90;49.73
5298;BME280;14738;42.668;23.250;2023-08-21T01:05:12;48380.38;;;-141.90;49.45
5298;BME280;14738;42.668;23.250;2023-08-21T01:07:53;48398.25;;;-141.90;49.52
5298;BME280;14738;42.668;23.250;2023-08-21T01:13:30;48398.25;;;-141.90;49.29
5298;BME280;14738;42.668;23.250;2023-08-21T01:15:58;48362.50;;;-141.90;49.82
5298;BME280;14738;42.668;23.250;2023-08-21T01:18:26;48380.38;;;-141.90;49.98
5298;BME280;14738;42.668;23.250;2023-08-21T01:20:52;48366.47;;;-141.90;50.52
5298;BME280;14738;42.668;23.250;2023-08-21T01:23:36;48380.38;;;-141.90;50.59
5298;BME280;14738;42.668;23.250;2023-08-21T01:26:02;48378.38;;;-141.90;50.75
5298;BME280;14738;42.668;23.250;2023-08-21T01:28:28;48398.25;;;-141.90;50.71
5298;BME280;14738;42.668;23.250;2023-08-21T01:31:15;48380.38;;;-141.90;51.78
5298;BME280;14738;42.668;23.250;2023-08-21T01:33:52;48400.22;;;-141.90;50.78
5298;BME280;14738;42.668;23.250;2023-08-21T01:36:19;48372.44;;;-141.90;51.48
5298;BME280;14738;42.668;23.250;2023-08-21T01:38:46;48386.34;;;-141.90;50.94
5298;BME280;14738;42.668;23.250;2023-08-21T01:41:12;48374.41;;;-141.90;51.27
5298;BME280;14738;42.668;23.250;2023-08-21T01:43:37;48370.44;;;-141.90;51.14
5298;BME280;14738;42.668;23.250;2023-08-21T01:46:03;48392.28;;;-141.90;51.26
5298;BME280;14738;42.668;23.250;2023-08-21T01:48:29;48378.38;;;-141.90;51.05
5298;BME280;14738;42.668;23.250;2023-08-21T01:50:54;48346.63;;;-141.90;51.97
5298;BME280;14738;42.668;23.250;2023-08-21T01:53:19;48366.47;;;-141.90;51.19
5298;BME280;14738;42.668;23.250;2023-08-21T01:55:45;48374.41;;;-141.90;50.71
5298;BME280;14738;42.668;23.250;2023-08-21T01:58:10;48376.41;;;-141.90;51.11
5298;BME280;14738;42.668;23.250;2023-08-21T02:00:35;48362.50;;;-141.90;51.79
5298;BME280;14738;42.668;23.250;2023-08-21T02:03:01;48396.25;;;-141.90;51.23
5298;BME280;14738;42.668;23.250;2023-08-21T02:05:26;48368.47;;;-141.90;51.08
5298;BME280;14738;42.668;23.250;2023-08-21T02:07:52;48378.38;;;-141.90;51.43
5298;BME280;14738;42.668;23.250;2023-08-21T02:10:17;48372.44;;;-141.90;51.08
5298;BME280;14738;42.668;23.250;2023-08-21T02:12:43;48392.28;;;-141.90;51.16
5298;BME280;14738;42.668;23.250;2023-08-21T02:15:09;48386.34;;;-141.90;51.47
5298;BME280;14738;42.668;23.250;2023-08-21T02:17:35;48366.47;;;-141.90;51.48
5298;BME280;14738;42.668;23.250;2023-08-21T02:20:00;48392.28;;;-141.90;50.94
5298;BME280;14738;42.668;23.250;2023-08-21T02:22:26;48386.34;;;-141.90;51.08
5298;BME280;14738;42.668;23.250;2023-08-21T02:24:51;48368.47;;;-141.90;52.05
5298;BME280;14738;42.668;23.250;2023-08-21T02:27:16;48390.31;;;-141.90;51.67
5298;BME280;14738;42.668;23.250;2023-08-21T02:29:42;48374.41;;;-141.90;51.45
5298;BME280;14738;42.668;23.250;2023-08-21T02:32:07;48368.47;;;-141.90;51.66
5298;BME280;14738;42.668;23.250;2023-08-21T02:34:32;48388.31;;;-141.90;51.76
5298;BME280;14738;42.668;23.250;2023-08-21T02:36:58;48390.31;;;-141.90;51.32
5298;BME280;14738;42.668;23.250;2023-08-21T02:39:23;48340.66;;;-141.90;51.65
5298;BME280;14738;42.668;23.250;2023-08-21T02:41:49;48386.34;;;-141.90;52.55
5298;BME280;14738;42.668;23.250;2023-08-21T02:44:14;48388.31;;;-141.90;52.19
5298;BME280;14738;42.668;23.250;2023-08-21T02:46:40;48374.41;;;-141.90;52.12
5298;BME280;14738;42.668;23.250;2023-08-21T02:49:05;48368.47;;;-141.90;52.01
5298;BME280;14738;42.668;23.250;2023-08-21T02:51:30;48374.41;;;-141.90;52.88
5298;BME280;14738;42.668;23.250;2023-08-21T02:53:56;48390.31;;;-141.90;52.29
5298;BME280;14738;42.668;23.250;2023-08-21T02:56:21;48358.53;;;-141.90;52.18
5298;BME280;14738;42.668;23.250;2023-08-21T02:58:47;48388.31;;;-141.90;52.74
5298;BME280;14738;42.668;23.250;2023-08-21T03:01:12;48376.41;;;-141.90;52.94
5298;BME280;14738;42.668;23.250;2023-08-21T03:03:37;48378.38;;;-141.90;53.54
5298;BME280;14738;42.668;23.250;2023-08-21T03:06:03;48368.47;;;-141.90;52.53
5298;BME280;14738;42.668;23.250;2023-08-21T03:08:28;48360.53;;;-141.90;52.93
5298;BME280;14738;42.668;23.250;2023-08-21T03:10:54;48364.50;;;-141.90;53.42
5298;BME280;14738;42.668;23.250;2023-08-21T03:13:19;48348.63;;;-141.90;53.28
5298;BME280;14738;42.668;23.250;2023-08-21T03:15:44;48366.47;;;-141.90;52.71
5298;BME280;14738;42.668;23.250;2023-08-21T03:18:10;48362.50;;;-141.90;53.60
5298;BME280;14738;42.668;23.250;2023-08-21T03:20:35;48366.47;;;-141.90;54.17
5298;BME280;14738;42.668;23.250;2023-08-21T03:23:01;48374.41;;;-141.90;54.01
5298;BME280;14738;42.668;23.250;2023-08-21T03:25:27;48362.50;;;-141.90;53.50
5298;BME280;14738;42.668;23.250;2023-08-21T03:27:53;48384.34;;;-141.90;53.67
5298;BME280;14738;42.668;23.250;2023-08-21T03:30:18;48358.53;;;-141.90;53.88
5298;BME280;14738;42.668;23.250;2023-08-21T03:32:43;48350.59;;;-141.90;53.79
5298;BME280;14738;42.668;23.250;2023-08-21T03:35:09;48386.34;;;-141.90;54.06
5298;BME280;14738;42.668;23.250;2023-08-21T03:37:34;48342.66;;;-141.90;54.31
5298;BME280;14738;42.668;23.250;2023-08-21T03:39:59;48372.44;;;-141.90;54.40
5298;BME280;14738;42.668;23.250;2023-08-21T03:42:25;48390.31;;;-141.90;54.23
5298;BME280;14738;42.668;23.250;2023-08-21T03:44:50;48360.53;;;-141.90;54.16
5298;BME280;14738;42.668;23.250;2023-08-21T03:47:16;48402.22;;;-141.90;53.73
5298;BME280;14738;42.668;23.250;2023-08-21T03:49:42;48356.56;;;-141.90;53.79
5298;BME280;14738;42.668;23.250;2023-08-21T03:52:07;48374.41;;;-141.90;53.67
5298;BME280;14738;42.668;23.250;2023-08-21T03:54:33;48364.50;;;-141.90;52.70
5298;BME280;14738;42.668;23.250;2023-08-21T03:56:58;48392.28;;;-141.90;51.82
5298;BME280;14738;42.668;23.250;2023-08-21T03:59:23;48398.25;;;-141.90;50.36
5298;BME280;14738;42.668;23.250;2023-08-21T04:01:52;48443.91;;;-141.90;49.88
5298;BME280;14738;42.668;23.250;2023-08-21T04:04:18;48435.97;;;-141.90;48.08
5298;BME280;14738;42.668;23.250;2023-08-21T04:06:43;48418.09;;;-141.90;46.74
5298;BME280;14738;42.668;23.250;2023-08-21T04:09:08;48459.78;;;-141.90;45.54
5298;BME280;14738;42.668;23.250;2023-08-21T04:11:34;48511.41;;;-141.90;44.64
5298;BME280;14738;42.668;23.250;2023-08-21T04:14:01;48519.34;;;-141.90;43.62
5298;BME280;14738;42.668;23.250;2023-08-21T04:16:26;48517.34;;;-141.90;42.52
5298;BME280;14738;42.668;23.250;2023-08-21T04:18:53;48545.16;;;-141.90;40.44
5298;BME280;14738;42.668;23.250;2023-08-21T04:21:18;48549.13;;;-141.90;40.27
5298;BME280;14738;42.668;23.250;2023-08-21T04:23:44;48557.06;;;-141.90;38.88
5298;BME280;14738;42.668;23.250;2023-08-21T04:26:10;48606.69;;;-141.90;38.11
5298;BME280;14738;42.668;23.250;2023-08-21T04:28:36;48588.84;;;-141.90;37.29
5298;BME280;14738;42.668;23.250;2023-08-21T04:31:04;48604.72;;;-141.90;37.01
5298;BME280;14738;42.668;23.250;2023-08-21T04:33:30;48588.84;;;-141.90;36.14
5298;BME280;14738;42.668;23.250;2023-08-21T04:35:56;48656.34;;;-141.90;35.50
5298;BME280;14738;42.668;23.250;2023-08-21T04:38:21;48707.94;;;-141.90;34.59
5298;BME280;14738;42.668;23.250;2023-08-21T04:40:46;48703.97;;;-141.90;35.03
5298;BME280;14738;42.668;23.250;2023-08-21T04:43:12;48711.91;;;-141.90;35.03
5298;BME280;14738;42.668;23.250;2023-08-21T04:45:37;48719.88;;;-141.90;34.28
5298;BME280;14738;42.668;23.250;2023-08-21T04:48:04;48751.63;;;-141.90;34.83
5298;BME280;14738;42.668;23.250;2023-08-21T04:50:30;48781.41;;;-141.90;33.30
5298;BME280;14738;42.668;23.250;2023-08-21T04:52:55;48791.34;;;-141.90;32.69
5298;BME280;14738;42.668;23.250;2023-08-21T04:55:20;48862.81;;;-141.90;30.54
5298;BME280;14738;42.668;23.250;2023-08-21T04:57:46;48821.13;;;-141.90;31.56
5298;BME280;14738;42.668;23.250;2023-08-21T05:00:12;48854.88;;;-141.90;30.59
5298;BME280;14738;42.668;23.250;2023-08-21T05:02:37;48854.88;;;-141.90;30.54
5298;BME280;14738;42.668;23.250;2023-08-21T05:05:04;48870.75;;;-141.90;30.01
5298;BME280;14738;42.668;23.250;2023-08-21T05:07:30;48908.47;;;-141.90;27.95
5298;BME280;14738;42.668;23.250;2023-08-21T05:09:59;48968.03;;;-141.90;27.47
5298;BME280;14738;42.668;23.250;2023-08-21T05:12:24;48966.06;;;-141.90;27.21
5298;BME280;14738;42.668;23.250;2023-08-21T05:14:51;48977.97;;;-141.90;26.53
5298;BME280;14738;42.668;23.250;2023-08-21T05:17:16;48970.03;;;-141.90;26.76
5298;BME280;14738;42.668;23.250;2023-08-21T05:19:41;48964.06;;;-141.90;26.67
5298;BME280;14738;42.668;23.250;2023-08-21T05:22:07;48966.06;;;-141.90;26.87
5298;BME280;14738;42.668;23.250;2023-08-21T05:24:32;48981.94;;;-141.90;27.29
5298;BME280;14738;42.668;23.250;2023-08-21T05:26:57;49039.53;;;-141.90;26.36
5298;BME280;14738;42.668;23.250;2023-08-21T05:29:23;48989.88;;;-141.90;26.89
5298;BME280;14738;42.668;23.250;2023-08-21T05:31:49;49017.69;;;-141.90;25.50
5298;BME280;14738;42.668;23.250;2023-08-21T05:34:14;49045.47;;;-141.90;25.52
5298;BME280;14738;42.668;23.250;2023-08-21T05:36:39;49083.22;;;-141.90;24.92
5298;BME280;14738;42.668;23.250;2023-08-21T05:39:05;49045.47;;;-141.90;25.74
5298;BME280;14738;42.668;23.250;2023-08-21T05:41:31;49057.41;;;-141.90;25.43
5298;BME280;14738;42.668;23.250;2023-08-21T05:43:57;49105.03;;;-141.90;24.88
5298;BME280;14738;42.668;23.250;2023-08-21T05:46:22;49043.50;;;-141.90;26.40
5298;BME280;14738;42.668;23.250;2023-08-21T05:48:47;49077.25;;;-141.90;26.87
5298;BME280;14738;42.668;23.250;2023-08-21T05:51:13;49025.63;;;-141.90;25.72
5298;BME280;14738;42.668;23.250;2023-08-21T05:53:38;49113.00;;;-141.90;24.90
5298;BME280;14738;42.668;23.250;2023-08-21T05:56:04;49113.00;;;-141.90;25.21
5298;BME280;14738;42.668;23.250;2023-08-21T05:58:29;49065.34;;;-141.90;24.84
5298;BME280;14738;42.668;23.250;2023-08-21T06:00:56;49122.91;;;-141.90;24.16
5298;BME280;14738;42.668;23.250;2023-08-21T06:03:22;49224.19;;;-141.90;23.89
5298;BME280;14738;42.668;23.250;2023-08-21T06:05:47;49194.41;;;-141.90;23.49
5298;BME280;14738;42.668;23.250;2023-08-21T06:08:13;49309.56;;;-141.90;22.42
5298;BME280;14738;42.668;23.250;2023-08-21T06:10:38;49422.75;;;-141.90;21.40
5298;BME280;14738;42.668;23.250;2023-08-21T06:13:04;49369.13;;;-141.90;22.59
5298;BME280;14738;42.668;23.250;2023-08-21T06:15:29;49251.97;;;-141.90;23.13
5298;BME280;14738;42.668;23.250;2023-08-21T06:17:55;49303.59;;;-141.90;23.64
5298;BME280;14738;42.668;23.250;2023-08-21T06:20:20;49414.81;;;-141.90;21.75
5298;BME280;14738;42.668;23.250;2023-08-21T06:22:46;49343.31;;;-141.90;22.68
5298;BME280;14738;42.668;23.250;2023-08-21T06:25:11;49315.53;;;-141.90;23.15
5298;BME280;14738;42.668;23.250;2023-08-21T06:27:38;49313.53;;;-141.90;22.73
5298;BME280;14738;42.668;23.250;2023-08-21T06:30:03;49363.19;;;-141.90;22.59
5298;BME280;14738;42.668;23.250;2023-08-21T06:32:29;49289.72;;;-141.90;22.19
5298;BME280;14738;42.668;23.250;2023-08-21T06:34:54;49279.78;;;-141.90;22.24
5298;BME280;14738;42.668;23.250;2023-08-21T06:37:19;49287.72;;;-141.90;23.38
5298;BME280;14738;42.668;23.250;2023-08-21T06:39:45;49343.31;;;-141.90;22.34
5298;BME280;14738;42.668;23.250;2023-08-21T06:42:10;49196.38;;;-141.90;23.42
5298;BME280;14738;42.668;23.250;2023-08-21T06:44:36;49277.78;;;-141.90;22.29
5298;BME280;14738;42.668;23.250;2023-08-21T06:47:01;49240.06;;;-141.90;22.40
5298;BME280;14738;42.668;23.250;2023-08-21T06:49:27;49307.59;;;-141.90;22.62
5298;BME280;14738;42.668;23.250;2023-08-21T06:51:52;49287.72;;;-141.90;22.59
5298;BME280;14738;42.668;23.250;2023-08-21T06:54:17;49269.84;;;-141.90;22.92
5298;BME280;14738;42.668;23.250;2023-08-21T06:56:43;49240.06;;;-141.90;22.52
5298;BME280;14738;42.668;23.250;2023-08-21T06:59:09;49178.50;;;-141.90;23.22
5298;BME280;14738;42.668;23.250;2023-08-21T07:01:35;49097.09;;;-141.90;23.76
5298;BME280;14738;42.668;23.250;2023-08-21T07:04:00;49065.34;;;-141.90;23.83
5298;BME280;14738;42.668;23.250;2023-08-21T07:06:28;49051.44;;;-141.90;24.54
5298;BME280;14738;42.668;23.250;2023-08-21T07:08:54;49015.69;;;-141.90;25.38
5298;BME280;14738;42.668;23.250;2023-08-21T07:11:19;49019.66;;;-141.90;23.85
5298;BME280;14738;42.668;23.250;2023-08-21T07:13:45;49005.78;;;-141.90;24.54
5298;BME280;14738;42.668;23.250;2023-08-21T07:16:10;48997.81;;;-141.90;25.55
5298;BME280;14738;42.668;23.250;2023-08-21T07:18:36;48987.91;;;-141.90;25.75
5298;BME280;14738;42.668;23.250;2023-08-21T07:21:02;48989.88;;;-141.90;25.33
5298;BME280;14738;42.668;23.250;2023-08-21T07:23:29;49021.66;;;-141.90;25.04
5298;BME280;14738;42.668;23.250;2023-08-21T07:25:57;49029.59;;;-141.90;25.52
5298;BME280;14738;42.668;23.250;2023-08-21T07:28:22;48944.22;;;-141.90;25.41
5298;BME280;14738;42.668;23.250;2023-08-21T07:30:48;49021.66;;;-141.90;25.02
5298;BME280;14738;42.668;23.250;2023-08-21T07:33:13;48966.06;;;-141.90;25.72
5298;BME280;14738;42.668;23.250;2023-08-21T07:35:38;48964.06;;;-141.90;25.61
5298;BME280;14738;42.668;23.250;2023-08-21T07:38:04;48964.06;;;-141.90;25.36
5298;BME280;14738;42.668;23.250;2023-08-21T07:40:30;48950.19;;;-141.90;26.83
5298;BME280;14738;42.668;23.250;2023-08-21T07:42:55;48944.22;;;-141.90;26.16
5298;BME280;14738;42.668;23.250;2023-08-21T07:45:20;48972.00;;;-141.90;26.10
5298;BME280;14738;42.668;23.250;2023-08-21T07:47:46;48918.41;;;-141.90;26.62
5298;BME280;14738;42.668;23.250;2023-08-21T07:50:11;48958.13;;;-141.90;25.96
5298;BME280;14738;42.668;23.250;2023-08-21T07:52:39;48966.06;;;-141.90;25.78
5298;BME280;14738;42.668;23.250;2023-08-21T07:55:06;48930.31;;;-141.90;25.70
5298;BME280;14738;42.668;23.250;2023-08-21T07:57:31;48900.53;;;-141.90;26.16
5298;BME280;14738;42.668;23.250;2023-08-21T07:59:57;48942.22;;;-141.90;25.82
5298;BME280;14738;42.668;23.250;2023-08-21T08:02:23;48906.50;;;-141.90;25.64
5298;BME280;14738;42.668;23.250;2023-08-21T08:04:48;48906.50;;;-141.90;25.98
5298;BME280;14738;42.668;23.250;2023-08-21T08:07:14;48870.75;;;-141.90;26.04
5298;BME280;14738;42.668;23.250;2023-08-21T08:09:39;48934.28;;;-141.90;25.53
5298;BME280;14738;42.668;23.250;2023-08-21T08:12:05;48890.59;;;-141.90;26.46
5298;BME280;14738;42.668;23.250;2023-08-21T08:14:31;48906.50;;;-141.90;25.77
5298;BME280;14738;42.668;23.250;2023-08-21T08:16:56;48906.50;;;-141.90;25.89
5298;BME280;14738;42.668;23.250;2023-08-21T08:19:21;48910.47;;;-141.90;26.10
5298;BME280;14738;42.668;23.250;2023-08-21T08:21:47;48896.56;;;-141.90;25.82
5298;BME280;14738;42.668;23.250;2023-08-21T08:24:12;48934.28;;;-141.90;25.95
5298;BME280;14738;42.668;23.250;2023-08-21T08:26:38;48926.34;;;-141.90;25.86
5298;BME280;14738;42.668;23.250;2023-08-21T08:29:03;48890.59;;;-141.90;25.57
5298;BME280;14738;42.668;23.250;2023-08-21T08:31:30;48926.34;;;-141.90;25.94
5298;BME280;14738;42.668;23.250;2023-08-21T08:33:55;48936.28;;;-141.90;25.58
5298;BME280;14738;42.668;23.250;2023-08-21T08:36:21;48910.47;;;-141.90;25.91
5298;BME280;14738;42.668;23.250;2023-08-21T08:38:46;48912.44;;;-141.90;26.08
5298;BME280;14738;42.668;23.250;2023-08-21T08:44:01;48958.13;;;-141.90;25.28
5298;BME280;14738;42.668;23.250;2023-08-21T08:46:29;48918.41;;;-141.90;26.08
5298;BME280;14738;42.668;23.250;2023-08-21T08:48:55;48985.91;;;-141.90;25.37
5298;BME280;14738;42.668;23.250;2023-08-21T08:51:24;48997.81;;;-141.90;24.54
5298;BME280;14738;42.668;23.250;2023-08-21T08:53:50;49001.81;;;-141.90;25.39
5298;BME280;14738;42.668;23.250;2023-08-21T08:56:16;49009.75;;;-141.90;24.07
5298;BME280;14738;42.668;23.250;2023-08-21T08:58:41;48952.16;;;-141.90;24.70
5298;BME280;14738;42.668;23.250;2023-08-21T09:01:08;48970.03;;;-141.90;24.72
5298;BME280;14738;42.668;23.250;2023-08-21T09:03:36;48908.47;;;-141.90;24.75
5298;BME280;14738;42.668;23.250;2023-08-21T09:06:01;48938.25;;;-141.90;24.52
5298;BME280;14738;42.668;23.250;2023-08-21T09:08:28;48950.19;;;-141.90;24.84
5298;BME280;14738;42.668;23.250;2023-08-21T09:10:53;48928.34;;;-141.90;24.57
5298;BME280;14738;42.668;23.250;2023-08-21T09:13:19;48948.19;;;-141.90;24.75
5298;BME280;14738;42.668;23.250;2023-08-21T09:15:54;48918.41;;;-141.90;25.10
5298;BME280;14738;42.668;23.250;2023-08-21T09:18:23;48892.59;;;-141.90;24.46
5298;BME280;14738;42.668;23.250;2023-08-21T09:20:48;48954.16;;;-141.90;25.05
5298;BME280;14738;42.668;23.250;2023-08-21T09:23:16;48948.19;;;-141.90;23.44
5298;BME280;14738;42.668;23.250;2023-08-21T09:25:44;48970.03;;;-141.90;23.81
5298;BME280;14738;42.668;23.250;2023-08-21T09:28:11;48962.09;;;-141.90;24.44
5298;BME280;14738;42.668;23.250;2023-08-21T09:30:47;48964.06;;;-141.90;24.24
5298;BME280;14738;42.668;23.250;2023-08-21T09:33:13;49007.75;;;-141.90;24.11
5298;BME280;14738;42.668;23.250;2023-08-21T09:35:42;49009.75;;;-141.90;23.17
5298;BME280;14738;42.668;23.250;2023-08-21T09:38:08;48962.09;;;-141.90;23.91
5298;BME280;14738;42.668;23.250;2023-08-21T09:40:33;48958.13;;;-141.90;23.83
5298;BME280;14738;42.668;23.250;2023-08-21T09:42:59;48970.03;;;-141.90;23.40
5298;BME280;14738;42.668;23.250;2023-08-21T09:45:26;48974.00;;;-141.90;23.32
5298;BME280;14738;42.668;23.250;2023-08-21T09:47:53;48950.19;;;-141.90;23.50
5298;BME280;14738;42.668;23.250;2023-08-21T09:50:19;48944.22;;;-141.90;23.33
5298;BME280;14738;42.668;23.250;2023-08-21T09:52:45;48944.22;;;-141.90;23.87
5298;BME280;14738;42.668;23.250;2023-08-21T09:55:13;48970.03;;;-141.90;23.77
5298;BME280;14738;42.668;23.250;2023-08-21T09:57:39;49009.75;;;-141.90;23.36
5298;BME280;14738;42.668;23.250;2023-08-21T10:00:05;48968.03;;;-141.90;23.44
5298;BME280;14738;42.668;23.250;2023-08-21T10:02:42;48989.88;;;-141.90;22.93
5298;BME280;14738;42.668;23.250;2023-08-21T10:05:11;48958.13;;;-141.90;22.88
5298;BME280;14738;42.668;23.250;2023-08-21T10:07:38;49017.69;;;-141.90;22.71
5298;BME280;14738;42.668;23.250;2023-08-21T10:10:04;48976.00;;;-141.90;22.49
5298;BME280;14738;42.668;23.250;2023-08-21T10:12:30;49009.75;;;-141.90;22.46
5298;BME280;14738;42.668;23.250;2023-08-21T10:14:55;49047.47;;;-141.90;22.62
5298;BME280;14738;42.668;23.250;2023-08-21T10:17:21;49037.53;;;-141.90;22.46
5298;BME280;14738;42.668;23.250;2023-08-21T10:19:55;49027.59;;;-141.90;22.22
5298;BME280;14738;42.668;23.250;2023-08-21T10:25:22;49025.63;;;-141.90;22.30
5298;BME280;14738;42.668;23.250;2023-08-21T10:27:53;49005.78;;;-141.90;22.11
5298;BME280;14738;42.668;23.250;2023-08-21T10:30:21;48954.16;;;-141.90;22.86
5298;BME280;14738;42.668;23.250;2023-08-21T10:32:48;48997.81;;;-141.90;22.40
5298;BME280;14738;42.668;23.250;2023-08-21T10:35:15;49007.75;;;-141.90;22.22
5298;BME280;14738;42.668;23.250;2023-08-21T10:38:14;49007.75;;;-141.90;22.60
5298;BME280;14738;42.668;23.250;2023-08-21T10:41:12;49001.81;;;-141.90;22.15
5298;BME280;14738;42.668;23.250;2023-08-21T10:43:44;48970.03;;;-141.90;22.68
5298;BME280;14738;42.668;23.250;2023-08-21T10:46:10;48979.97;;;-141.90;22.88
5298;BME280;14738;42.668;23.250;2023-08-21T10:48:36;48942.22;;;-141.90;23.16
5298;BME280;14738;42.668;23.250;2023-08-21T10:51:04;48993.84;;;-141.90;22.54
5298;BME280;14738;42.668;23.250;2023-08-21T10:53:30;48989.88;;;-141.90;21.86
5298;BME280;14738;42.668;23.250;2023-08-21T10:55:57;48942.22;;;-141.90;22.63
5298;BME280;14738;42.668;23.250;2023-08-21T10:58:23;48942.22;;;-141.90;22.74
5298;BME280;14738;42.668;23.250;2023-08-21T11:00:58;48962.09;;;-141.90;22.34
5298;BME280;14738;42.668;23.250;2023-08-21T11:03:24;48966.06;;;-141.90;22.62
5298;BME280;14738;42.668;23.250;2023-08-21T11:06:02;49001.81;;;-141.90;21.81
5298;BME280;14738;42.668;23.250;2023-08-21T11:08:28;48993.84;;;-141.90;21.68
5298;BME280;14738;42.668;23.250;2023-08-21T11:10:54;49041.50;;;-141.90;21.76
5298;BME280;14738;42.668;23.250;2023-08-21T11:13:23;49049.44;;;-141.90;21.27
5298;BME280;14738;42.668;23.250;2023-08-21T11:15:49;49093.13;;;-141.90;21.20
5298;BME280;14738;42.668;23.250;2023-08-21T11:18:22;49045.47;;;-141.90;21.29
5298;BME280;14738;42.668;23.250;2023-08-21T11:20:52;49101.06;;;-141.90;21.12
5298;BME280;14738;42.668;23.250;2023-08-21T11:23:32;49071.28;;;-141.90;20.56
5298;BME280;14738;42.668;23.250;2023-08-21T11:25:57;49101.06;;;-141.90;20.29
5298;BME280;14738;42.668;23.250;2023-08-21T11:28:23;49047.47;;;-141.90;20.23
5298;BME280;14738;42.668;23.250;2023-08-21T11:30:48;49097.09;;;-141.90;19.88
5298;BME280;14738;42.668;23.250;2023-08-21T11:33:14;49087.19;;;-141.90;19.85
5298;BME280;14738;42.668;23.250;2023-08-21T11:35:39;49089.16;;;-141.90;19.64
5298;BME280;14738;42.668;23.250;2023-08-21T11:38:06;49045.47;;;-141.90;20.64
5298;BME280;14738;42.668;23.250;2023-08-21T11:40:34;49049.44;;;-141.90;20.67
5298;BME280;14738;42.668;23.250;2023-08-21T11:43:01;49041.50;;;-141.90;20.66
5298;BME280;14738;42.668;23.250;2023-08-21T11:45:27;49009.75;;;-141.90;20.37
5298;BME280;14738;42.668;23.250;2023-08-21T11:47:56;49051.44;;;-141.90;20.42
5298;BME280;14738;42.668;23.250;2023-08-21T11:50:22;49053.41;;;-141.90;20.09
5298;BME280;14738;42.668;23.250;2023-08-21T11:52:51;49019.66;;;-141.90;20.10
5298;BME280;14738;42.668;23.250;2023-08-21T11:55:17;49035.56;;;-141.90;20.24
5298;BME280;14738;42.668;23.250;2023-08-21T11:57:49;49025.63;;;-141.90;20.18
5298;BME280;14738;42.668;23.250;2023-08-21T12:00:18;49021.66;;;-141.90;20.23
5298;BME280;14738;42.668;23.250;2023-08-21T12:02:57;49027.59;;;-141.90;20.30
5298;BME280;14738;42.668;23.250;2023-08-21T12:05:24;49009.75;;;-141.90;20.08
5298;BME280;14738;42.668;23.250;2023-08-21T12:07:50;49065.34;;;-141.90;20.31
5298;BME280;14738;42.668;23.250;2023-08-21T12:10:22;49029.59;;;-141.90;19.68
5298;BME280;14738;42.668;23.250;2023-08-21T12:12:48;49065.34;;;-141.90;19.65
5298;BME280;14738;42.668;23.250;2023-08-21T12:15:13;49037.53;;;-141.90;19.73
5298;BME280;14738;42.668;23.250;2023-08-21T12:17:38;49041.50;;;-141.90;19.67
5298;BME280;14738;42.668;23.250;2023-08-21T12:20:04;49037.53;;;-141.90;20.05
5298;BME280;14738;42.668;23.250;2023-08-21T12:22:36;49053.41;;;-141.90;20.10
5298;BME280;14738;42.668;23.250;2023-08-21T12:25:01;49089.16;;;-141.90;19.97
5298;BME280;14738;42.668;23.250;2023-08-21T12:27:26;49045.47;;;-141.90;20.22
5298;BME280;14738;42.668;23.250;2023-08-21T12:29:52;49077.25;;;-141.90;19.67
5298;BME280;14738;42.668;23.250;2023-08-21T12:32:17;49057.41;;;-141.90;20.22
5298;BME280;14738;42.668;23.250;2023-08-21T12:34:42;49077.25;;;-141.90;19.88
5298;BME280;14738;42.668;23.250;2023-08-21T12:37:08;49059.38;;;-141.90;20.06
5298;BME280;14738;42.668;23.250;2023-08-21T12:39:33;49049.44;;;-141.90;19.80
5298;BME280;14738;42.668;23.250;2023-08-21T12:41:58;49089.16;;;-141.90;19.84
5298;BME280;14738;42.668;23.250;2023-08-21T12:44:24;49101.06;;;-141.90;19.72
5298;BME280;14738;42.668;23.250;2023-08-21T12:46:49;49053.41;;;-141.90;19.43